Time;durP1;ratioP1;P1;durP2;ratioP2;P2;SDS_P1;SDS_P2;PMS_P1;PMS_P2;Temp;Humidity;BMP_temperature;BMP_pressure;BME280_temperature;BME280_humidity;BME280_pressure;Samples;Min_cycle;Max_cycle;Signal;HPM_P1;HPM_P2
2022/07/09 00:01:04;;;;;;;2.13;1.38;;;21.80;75.60;;;;;;5009483;28;20054;-54
2022/07/09 00:03:31;;;;;;;2.33;1.20;;;21.80;75.90;;;;;;5009094;28;20081;-56
2022/07/09 00:05:58;;;;;;;4.45;2.35;;;21.80;76.20;;;;;;5009440;28;20052;-53
2022/07/09 00:08:24;;;;;;;3.03;1.20;;;21.80;76.60;;;;;;5007813;28;20232;-54
2022/07/09 00:10:51;;;;;;;3.85;1.70;;;21.70;77.00;;;;;;4660956;28;10000250;-55
2022/07/09 00:13:18;;;;;;;2.08;1.27;;;21.70;77.30;;;;;;5008340;28;20493;-57
2022/07/09 00:15:45;;;;;;;3.03;1.40;;;21.60;77.70;;;;;;5008933;28;20189;-56
2022/07/09 00:18:12;;;;;;;2.03;1.30;;;21.60;78.20;;;;;;5008971;28;20045;-57
2022/07/09 00:20:39;;;;;;;3.88;1.20;;;21.60;78.60;;;;;;5008812;28;20566;-57
2022/07/09 00:23:05;;;;;;;4.43;1.40;;;21.50;78.90;;;;;;5008955;28;20073;-52
2022/07/09 00:25:32;;;;;;;3.00;1.20;;;21.50;79.30;;;;;;5008927;28;20050;-53
2022/07/09 00:27:59;;;;;;;2.15;1.30;;;21.50;79.70;;;;;;5008900;28;20556;-56
2022/07/09 00:30:26;;;;;;;3.85;1.42;;;21.50;80.30;;;;;;5008976;28;20077;-59
2022/07/09 00:32:53;;;;;;;2.60;1.10;;;21.40;81.00;;;;;;5008786;28;20096;-54
2022/07/09 00:35:20;;;;;;;4.53;1.50;;;21.40;81.50;;;;;;5008637;28;20477;-53
2022/07/09 00:37:46;;;;;;;4.53;1.58;;;21.40;82.10;;;;;;5008695;28;20074;-52
2022/07/09 00:40:13;;;;;;;3.83;1.05;;;21.40;82.60;;;;;;4994376;28;20119;-55
2022/07/09 00:42:40;;;;;;;3.22;1.45;;;21.40;82.70;;;;;;5008859;28;20045;-52
2022/07/09 00:45:07;;;;;;;3.25;1.35;;;21.30;83.10;;;;;;5008463;28;20468;-56
2022/07/09 00:47:34;;;;;;;1.85;1.40;;;21.30;83.40;;;;;;5008904;28;20074;-54
2022/07/09 00:50:01;;;;;;;3.17;1.23;;;21.30;83.70;;;;;;5007227;28;20046;-53
2022/07/09 00:52:28;;;;;;;1.40;1.10;;;21.30;84.10;;;;;;5007900;28;20074;-53
2022/07/09 00:54:54;;;;;;;2.10;1.17;;;21.20;84.50;;;;;;5007588;28;20046;-53
2022/07/09 00:57:22;;;;;;;2.53;1.50;;;21.20;84.90;;;;;;5007312;28;20135;-52
2022/07/09 00:59:49;;;;;;;5.43;1.42;;;21.20;85.30;;;;;;5008758;28;20073;-51
2022/07/09 01:02:16;;;;;;;2.25;1.10;;;21.20;85.50;;;;;;5007065;28;20062;-55
2022/07/09 01:04:42;;;;;;;5.80;1.30;;;21.10;85.90;;;;;;5007177;28;20133;-51
2022/07/09 01:07:09;;;;;;;4.20;1.38;;;21.10;86.30;;;;;;5008378;28;20077;-54
2022/07/09 01:09:36;;;;;;;4.78;1.30;;;21.10;86.70;;;;;;5008589;28;20061;-53
2022/07/09 01:12:03;;;;;;;7.93;1.40;;;21.00;87.10;;;;;;5007267;28;20065;-55
2022/07/09 01:14:30;;;;;;;4.68;1.08;;;21.00;87.50;;;;;;5012021;28;20072;-53
2022/07/09 01:17:01;;;;;;;1.90;1.10;;;20.90;87.80;;;;;;5015548;28;20042;-55
2022/07/09 01:19:28;;;;;;;1.80;1.10;;;20.90;88.80;;;;;;5008284;28;20083;-55
2022/07/09 01:21:55;;;;;;;3.17;0.95;;;20.90;88.50;;;;;;5008199;28;20050;-56
2022/07/09 01:24:25;;;;;;;4.32;1.35;;;20.80;88.80;;;;;;5008574;28;20081;-55
2022/07/09 01:26:52;;;;;;;1.98;1.38;;;20.80;89.30;;;;;;5008332;28;20046;-53
2022/07/09 01:29:20;;;;;;;5.30;1.55;;;20.80;89.90;;;;;;5008461;28;20041;-56
2022/07/09 01:31:47;;;;;;;2.65;1.30;;;20.70;90.20;;;;;;5007883;28;20038;-55
2022/07/09 01:34:14;;;;;;;3.78;1.00;;;20.70;90.10;;;;;;5015081;28;20050;-53
2022/07/09 01:36:40;;;;;;;3.55;1.30;;;20.70;90.10;;;;;;5014579;28;20050;-53
2022/07/09 01:39:07;;;;;;;1.67;0.98;;;20.70;90.30;;;;;;5014841;28;20142;-53
2022/07/09 01:41:34;;;;;;;3.88;1.40;;;20.70;90.40;;;;;;5014929;28;20073;-56
2022/07/09 01:44:01;;;;;;;3.28;1.42;;;20.60;90.60;;;;;;5014475;28;20480;-55
2022/07/09 01:46:28;;;;;;;1.75;1.20;;;20.50;90.90;;;;;;5014613;28;20089;-55
2022/07/09 01:48:55;;;;;;;3.08;1.02;;;20.50;91.00;;;;;;5014700;28;20057;-53
2022/07/09 01:51:22;;;;;;;6.78;1.38;;;20.50;91.10;;;;;;5014555;28;20081;-55
2022/07/09 01:53:49;;;;;;;2.80;1.50;;;20.50;91.10;;;;;;5014544;28;20049;-54
2022/07/09 01:56:15;;;;;;;6.20;2.40;;;20.50;91.30;;;;;;5014782;28;20069;-54
2022/07/09 01:58:43;;;;;;;4.03;1.40;;;20.30;91.50;;;;;;5014450;28;20074;-54
2022/07/09 02:01:10;;;;;;;2.38;1.27;;;20.30;91.80;;;;;;5014219;28;20081;-55
2022/07/09 02:03:37;;;;;;;4.45;1.23;;;20.20;92.00;;;;;;5014542;28;20132;-56
2022/07/09 02:06:04;;;;;;;2.70;1.08;;;20.20;92.10;;;;;;5014434;28;20080;-55
2022/07/09 02:08:31;;;;;;;2.17;1.40;;;20.20;92.30;;;;;;5014489;28;20053;-54
2022/07/09 02:10:58;;;;;;;2.60;1.10;;;20.10;92.60;;;;;;5014341;28;20046;-54
2022/07/09 02:13:26;;;;;;;3.33;1.25;;;20.00;92.80;;;;;;5014071;28;20077;-53
2022/07/09 02:15:52;;;;;;;1.35;1.05;;;20.10;93.00;;;;;;5027917;28;20053;-55
2022/07/09 02:18:20;;;;;;;1.50;1.10;;;20.10;93.20;;;;;;5014217;28;20058;-52
2022/07/09 02:20:47;;;;;;;0.93;0.73;;;20.10;93.30;;;;;;5013273;28;20338;-55
2022/07/09 02:23:14;;;;;;;1.63;1.00;;;20.10;93.30;;;;;;5013976;28;20160;-53
2022/07/09 02:25:40;;;;;;;3.25;1.00;;;20.00;93.50;;;;;;5014432;28;20073;-54
2022/07/09 02:28:07;;;;;;;2.42;1.00;;;20.00;93.70;;;;;;5014378;28;20045;-53
2022/07/09 02:30:36;;;;;;;1.65;1.20;;;20.00;93.90;;;;;;5012757;28;20538;-55
2022/07/09 02:33:04;;;;;;;1.27;0.90;;;20.00;93.90;;;;;;5014101;28;20136;-55
2022/07/09 02:35:31;;;;;;;3.40;0.90;;;20.00;94.10;;;;;;5013945;28;20081;-55
2022/07/09 02:37:57;;;;;;;4.70;0.80;;;20.00;94.20;;;;;;5014047;28;20092;-53
2022/07/09 02:40:24;;;;;;;1.88;1.20;;;20.00;94.30;;;;;;5013862;28;20481;-55
2022/07/09 02:42:51;;;;;;;1.75;1.17;;;19.90;94.50;;;;;;5013748;28;20520;-54
2022/07/09 02:45:18;;;;;;;2.28;1.05;;;19.90;94.60;;;;;;5011051;28;20077;-53
2022/07/09 02:47:45;;;;;;;2.80;1.00;;;19.80;94.80;;;;;;5010896;28;20149;-54
2022/07/09 02:50:12;;;;;;;4.18;1.30;;;19.80;95.00;;;;;;5010662;28;20093;-54
2022/07/09 02:52:38;;;;;;;1.63;1.13;;;19.70;95.20;;;;;;5010796;28;20452;-54
2022/07/09 02:55:05;;;;;;;1.73;1.10;;;19.70;95.50;;;;;;5010637;28;20559;-54
2022/07/09 02:57:32;;;;;;;1.23;0.80;;;19.70;95.60;;;;;;5011028;28;20100;-54
2022/07/09 02:59:59;;;;;;;2.55;1.05;;;19.70;95.90;;;;;;5010390;28;20081;-55
2022/07/09 03:02:26;;;;;;;0.93;0.80;;;19.60;96.10;;;;;;5010543;28;20096;-55
2022/07/09 03:04:53;;;;;;;2.47;2.22;;;19.60;96.10;;;;;;5009471;28;20049;-56
2022/07/09 03:07:20;;;;;;;1.65;0.98;;;19.60;96.40;;;;;;5010785;28;20088;-54
2022/07/09 03:09:46;;;;;;;2.45;1.10;;;19.60;96.40;;;;;;5010316;28;20056;-59
2022/07/09 03:12:13;;;;;;;1.15;1.00;;;19.60;96.80;;;;;;5010323;28;20489;-53
2022/07/09 03:14:40;;;;;;;2.63;1.00;;;19.50;96.90;;;;;;5013850;28;20103;-54
2022/07/09 03:17:07;;;;;;;2.42;1.10;;;19.40;97.00;;;;;;5010869;28;20480;-51
2022/07/09 03:19:34;;;;;;;2.55;1.17;;;19.40;97.20;;;;;;5010539;28;20045;-52
2022/07/09 03:22:00;;;;;;;0.95;0.85;;;19.40;97.30;;;;;;5010012;28;20042;-56
2022/07/09 03:24:27;;;;;;;2.60;0.75;;;19.40;97.70;;;;;;5008336;28;20449;-54
2022/07/09 03:26:54;;;;;;;1.85;0.85;;;19.30;97.70;;;;;;5010062;28;20129;-55
2022/07/09 03:29:21;;;;;;;2.00;1.10;;;19.30;97.80;;;;;;5010179;28;20132;-53
2022/07/09 03:31:48;;;;;;;2.58;1.10;;;19.30;97.90;;;;;;5010014;28;20041;-51
2022/07/09 03:34:14;;;;;;;1.83;1.33;;;19.30;98.00;;;;;;5009988;28;20109;-51
2022/07/09 03:36:41;;;;;;;1.45;1.05;;;19.30;98.10;;;;;;5009871;28;20272;-54
2022/07/09 03:39:09;;;;;;;1.10;1.00;;;19.30;98.20;;;;;;5009771;28;20607;-53
2022/07/09 03:41:36;;;;;;;2.33;1.10;;;19.30;98.40;;;;;;5009774;28;20077;-52
2022/07/09 03:44:03;;;;;;;4.30;2.25;;;19.30;98.50;;;;;;5009910;28;20050;-55
2022/07/09 03:46:31;;;;;;;0.95;0.88;;;19.20;98.70;;;;;;5009922;28;20076;-55
2022/07/09 03:48:58;;;;;;;2.13;0.95;;;19.20;98.70;;;;;;5009919;28;20045;-52
2022/07/09 03:51:25;;;;;;;1.60;1.20;;;19.20;98.90;;;;;;5009513;28;20042;-54
2022/07/09 03:53:51;;;;;;;1.88;1.15;;;19.10;98.90;;;;;;5009848;28;20541;-51
2022/07/09 03:56:19;;;;;;;3.42;1.05;;;19.10;99.00;;;;;;5009100;28;20477;-55
2022/07/09 03:58:46;;;;;;;3.92;1.50;;;19.10;99.10;;;;;;5009698;28;20440;-52
2022/07/09 04:01:14;;;;;;;2.45;0.95;;;19.10;99.10;;;;;;5009273;28;20054;-50
2022/07/09 04:03:40;;;;;;;2.35;1.08;;;19.10;99.20;;;;;;5006626;28;20050;-54
2022/07/09 04:06:07;;;;;;;3.20;1.27;;;19.10;99.30;;;;;;5008780;28;20137;-54
2022/07/09 04:08:34;;;;;;;1.58;1.10;;;19.00;99.40;;;;;;5009295;28;20585;-53
2022/07/09 04:11:02;;;;;;;4.03;1.40;;;19.10;99.40;;;;;;5009224;28;20052;-56
2022/07/09 04:13:29;;;;;;;2.30;1.20;;;19.10;99.50;;;;;;5008984;28;20121;-56
2022/07/09 04:15:56;;;;;;;1.65;0.95;;;19.00;99.90;;;;;;5012986;28;20078;-56
2022/07/09 04:18:22;;;;;;;2.47;1.10;;;18.90;99.90;;;;;;5009112;28;20464;-56
2022/07/09 04:20:50;;;;;;;1.67;0.90;;;18.80;99.90;;;;;;5009403;28;20081;-54
2022/07/09 04:23:17;;;;;;;1.35;1.13;;;18.80;99.90;;;;;;5009074;28;20107;-52
2022/07/09 04:25:45;;;;;;;2.78;1.20;;;18.90;99.90;;;;;;5009154;28;20080;-50
2022/07/09 04:28:12;;;;;;;1.52;1.10;;;18.80;99.90;;;;;;5008978;28;20050;-51
2022/07/09 04:30:39;;;;;;;2.33;1.30;;;18.80;99.90;;;;;;5008872;28;20050;-55
2022/07/09 04:33:06;;;;;;;1.88;1.15;;;18.80;99.90;;;;;;5008584;28;20505;-51
2022/07/09 04:35:32;;;;;;;1.90;1.30;;;18.80;99.90;;;;;;5009197;28;20082;-54
2022/07/09 04:37:59;;;;;;;4.88;1.40;;;18.80;99.90;;;;;;5008806;28;20045;-55
2022/07/09 04:40:26;;;;;;;1.50;1.20;;;18.80;99.90;;;;;;5009384;28;20114;-55
2022/07/09 04:42:53;;;;;;;1.50;1.15;;;18.70;99.90;;;;;;5008622;28;20131;-53
2022/07/09 04:45:19;;;;;;;2.17;1.48;;;18.70;99.90;;;;;;5008713;28;20172;-54
2022/07/09 04:47:46;;;;;;;2.85;1.30;;;18.70;99.90;;;;;;5008708;28;20083;-53
2022/07/09 04:50:13;;;;;;;1.52;1.17;;;18.70;99.90;;;;;;5008397;28;20420;-55
2022/07/09 04:52:40;;;;;;;2.70;1.67;;;18.60;99.90;;;;;;5008922;28;20441;-53
2022/07/09 04:55:09;;;;;;;3.78;1.30;;;18.60;99.90;;;;;;5008573;28;20085;-53
2022/07/09 04:57:36;;;;;;;5.63;1.40;;;18.60;99.90;;;;;;5008389;28;20069;-55
2022/07/09 05:00:03;;;;;;;4.47;1.67;;;18.70;99.90;;;;;;5008394;28;20556;-54
2022/07/09 05:02:30;;;;;;;3.63;1.50;;;18.60;99.90;;;;;;5008361;28;20054;-54
2022/07/09 05:04:57;;;;;;;4.05;1.30;;;18.60;99.90;;;;;;5008351;28;20429;-52
2022/07/09 05:07:24;;;;;;;3.45;1.77;;;18.60;99.90;;;;;;5007838;28;20077;-50
2022/07/09 05:09:50;;;;;;;4.78;2.00;;;18.70;99.90;;;;;;5008311;28;20076;-54
2022/07/09 05:12:17;;;;;;;1.52;1.42;;;18.70;99.90;;;;;;5008174;28;20069;-56
2022/07/09 05:14:44;;;;;;;2.00;1.42;;;18.70;99.90;;;;;;5007811;28;20042;-54
2022/07/09 05:17:11;;;;;;;4.50;1.58;;;18.70;99.90;;;;;;5007175;28;20135;-53
2022/07/09 05:19:38;;;;;;;3.88;1.48;;;18.80;99.90;;;;;;5008394;28;20050;-54
2022/07/09 05:22:04;;;;;;;4.78;1.40;;;18.90;99.90;;;;;;5008255;28;20038;-52
2022/07/09 05:24:31;;;;;;;2.15;1.30;;;18.90;99.90;;;;;;5007644;28;20084;-53
2022/07/09 05:26:58;;;;;;;2.03;1.10;;;18.90;99.90;;;;;;5008335;28;20078;-56
2022/07/09 05:29:26;;;;;;;3.17;1.45;;;19.00;99.90;;;;;;5007746;28;20497;-55
2022/07/09 05:31:54;;;;;;;5.30;1.83;;;19.10;99.90;;;;;;5004892;28;20042;-54
2022/07/09 05:34:21;;;;;;;1.50;1.25;;;19.10;99.90;;;;;;5007753;28;20527;-56
2022/07/09 05:36:48;;;;;;;2.25;1.40;;;19.20;99.90;;;;;;5008026;28;20042;-54
2022/07/09 05:39:15;;;;;;;5.60;1.60;;;19.30;99.90;;;;;;5007859;28;20262;-53
2022/07/09 05:41:42;;;;;;;1.92;1.30;;;19.30;99.90;;;;;;5007716;28;20046;-55
2022/07/09 05:44:09;;;;;;;2.10;1.73;;;19.40;99.90;;;;;;5006677;28;20108;-54
2022/07/09 05:46:41;;;;;;;2.65;1.50;;;19.50;99.90;;;;;;5007837;28;20277;-54
2022/07/09 05:49:08;;;;;;;3.72;1.83;;;19.50;99.90;;;;;;5007930;28;20053;-54
2022/07/09 05:51:34;;;;;;;2.95;1.50;;;19.50;99.90;;;;;;5007807;28;20046;-55
2022/07/09 05:54:01;;;;;;;3.28;1.48;;;19.60;99.90;;;;;;5008098;28;20092;-53
2022/07/09 05:56:28;;;;;;;4.13;1.70;;;19.70;99.90;;;;;;5007716;28;20521;-51
2022/07/09 05:58:55;;;;;;;3.08;1.55;;;19.70;99.90;;;;;;5007581;28;20422;-55
2022/07/09 06:01:21;;;;;;;2.13;1.30;;;19.80;99.90;;;;;;4996919;28;20112;-54
2022/07/09 06:03:53;;;;;;;2.63;1.42;;;19.80;99.90;;;;;;5008036;28;20081;-50
2022/07/09 06:06:19;;;;;;;2.40;1.50;;;19.80;99.90;;;;;;5007840;28;20056;-54
2022/07/09 06:08:46;;;;;;;4.57;1.60;;;19.90;99.90;;;;;;5007673;28;20092;-50
2022/07/09 06:11:13;;;;;;;5.03;1.83;;;19.90;99.90;;;;;;5007630;28;20069;-52
2022/07/09 06:13:40;;;;;;;8.00;2.20;;;19.90;99.90;;;;;;5022892;28;20050;-51
2022/07/09 06:16:07;;;;;;;15.88;1.75;;;20.00;99.90;;;;;;5007235;28;20046;-56
2022/07/09 06:18:34;;;;;;;2.67;1.48;;;20.00;99.90;;;;;;5008728;28;20486;-54
2022/07/09 06:21:01;;;;;;;2.83;1.75;;;20.10;99.90;;;;;;5010987;28;20128;-55
2022/07/09 06:23:28;;;;;;;3.55;1.45;;;20.10;99.90;;;;;;5010650;28;20050;-54
2022/07/09 06:25:55;;;;;;;6.10;1.50;;;20.10;99.90;;;;;;5011140;28;20045;-53
2022/07/09 06:28:22;;;;;;;2.72;1.40;;;20.10;99.90;;;;;;5011312;28;20128;-53
2022/07/09 06:30:48;;;;;;;9.48;1.45;;;20.10;99.90;;;;;;5010157;28;20073;-56
2022/07/09 06:33:15;;;;;;;2.45;1.33;;;20.00;99.90;;;;;;5010855;28;20054;-55
2022/07/09 06:35:42;;;;;;;1.95;1.17;;;20.00;99.90;;;;;;5010940;28;20042;-56
2022/07/09 06:38:09;;;;;;;2.63;1.45;;;20.00;99.90;;;;;;5010689;28;20053;-53
2022/07/09 06:40:36;;;;;;;6.10;1.35;;;20.10;99.90;;;;;;5010931;28;20103;-53
2022/07/09 06:43:03;;;;;;;5.78;1.50;;;20.20;99.90;;;;;;5026047;28;20453;-57
2022/07/09 06:45:30;;;;;;;1.73;1.42;;;20.30;99.90;;;;;;5011404;28;20450;-55
2022/07/09 06:47:57;;;;;;;3.08;1.52;;;20.30;99.90;;;;;;5019462;28;20042;-54
2022/07/09 06:50:23;;;;;;;4.80;1.48;;;20.40;99.90;;;;;;5015934;28;20069;-53
2022/07/09 06:52:50;;;;;;;2.20;1.50;;;20.50;99.90;;;;;;5014927;28;20054;-56
2022/07/09 06:55:17;;;;;;;2.03;1.15;;;20.60;99.90;;;;;;5011904;28;20100;-55
2022/07/09 06:57:44;;;;;;;5.35;1.63;;;20.70;99.90;;;;;;5010574;28;20077;-55
2022/07/09 07:00:11;;;;;;;3.05;1.23;;;20.70;99.90;;;;;;5010101;28;20093;-56
2022/07/09 07:02:38;;;;;;;7.03;1.42;;;20.70;99.90;;;;;;5009129;28;20089;-54
2022/07/09 07:05:05;;;;;;;1.48;1.08;;;20.70;99.90;;;;;;5009898;28;20366;-54
2022/07/09 07:07:32;;;;;;;2.17;1.98;;;20.70;99.90;;;;;;5010300;28;20104;-55
2022/07/09 07:09:59;;;;;;;3.97;1.15;;;20.70;99.90;;;;;;5010094;28;20304;-55
2022/07/09 07:12:25;;;;;;;2.03;1.20;;;20.70;99.90;;;;;;5009312;28;20042;-59
2022/07/09 07:14:52;;;;;;;4.40;1.58;;;20.60;99.90;;;;;;5012187;28;20476;-52
2022/07/09 07:17:19;;;;;;;2.78;1.20;;;20.70;99.90;;;;;;5017454;28;20555;-55
2022/07/09 07:19:46;;;;;;;2.05;1.20;;;20.70;99.70;;;;;;5010240;28;20092;-56
2022/07/09 07:22:13;;;;;;;2.70;1.10;;;20.80;99.50;;;;;;5009966;28;20419;-52
2022/07/09 07:24:40;;;;;;;3.00;1.23;;;20.80;99.50;;;;;;5010057;28;20057;-54
2022/07/09 07:27:07;;;;;;;4.40;1.00;;;20.90;99.30;;;;;;4661745;28;9999850;-55
2022/07/09 07:29:33;;;;;;;1.98;1.02;;;20.90;99.20;;;;;;5009293;28;20183;-52
2022/07/09 07:32:00;;;;;;;2.13;1.02;;;21.00;99.00;;;;;;5011908;28;20281;-53
2022/07/09 07:34:27;;;;;;;1.20;0.80;;;20.80;98.90;;;;;;5013883;28;20053;-54
2022/07/09 07:36:55;;;;;;;1.02;0.60;;;20.80;99.00;;;;;;5013172;28;20082;-53
2022/07/09 07:39:24;;;;;;;1.70;0.90;;;20.90;98.80;;;;;;5009208;28;20504;-53
2022/07/09 07:41:51;;;;;;;1.77;0.63;;;20.90;98.70;;;;;;5007837;28;20053;-57
2022/07/09 07:44:18;;;;;;;1.58;0.82;;;21.00;98.30;;;;;;5008737;28;20221;-56
2022/07/09 07:46:45;;;;;;;2.63;0.50;;;21.00;98.20;;;;;;5017270;28;20135;-53
2022/07/09 07:49:12;;;;;;;0.77;0.70;;;21.10;98.20;;;;;;5005879;28;20109;-55
2022/07/09 07:51:38;;;;;;;1.27;1.00;;;21.00;97.90;;;;;;5006447;28;20077;-54
2022/07/09 07:54:05;;;;;;;1.83;0.98;;;21.20;98.00;;;;;;5005930;28;20115;-53
2022/07/09 07:56:36;;;;;;;1.52;0.80;;;21.20;98.00;;;;;;5021258;28;20050;-54
2022/07/09 07:59:03;;;;;;;4.43;1.05;;;21.20;97.80;;;;;;5006169;28;20513;-53
2022/07/09 08:01:30;;;;;;;2.13;0.82;;;21.10;97.80;;;;;;5006080;28;20085;-54
2022/07/09 08:03:57;;;;;;;3.92;1.15;;;21.20;97.90;;;;;;5006224;28;20078;-61
2022/07/09 08:06:24;;;;;;;4.30;1.00;;;21.20;97.70;;;;;;4989028;28;20124;-54
2022/07/09 08:08:51;;;;;;;1.33;0.80;;;21.20;97.60;;;;;;5006655;28;20077;-53
2022/07/09 08:11:17;;;;;;;4.47;0.93;;;21.30;97.50;;;;;;5006345;28;20088;-54
2022/07/09 08:13:44;;;;;;;1.25;1.05;;;21.30;97.30;;;;;;5005908;28;20073;-55
2022/07/09 08:16:11;;;;;;;9.10;2.75;;;21.40;96.90;;;;;;5006264;28;20077;-55
2022/07/09 08:18:38;;;;;;;3.38;0.88;;;21.50;96.90;;;;;;5005962;28;20073;-51
2022/07/09 08:21:07;;;;;;;2.60;0.93;;;21.60;96.70;;;;;;5006158;28;20046;-54
2022/07/09 08:23:51;;;;;;;1.33;0.75;;;21.60;96.30;;;;;;5004702;28;20050;-54
2022/07/09 08:26:21;;;;;;;1.95;0.65;;;21.70;95.90;;;;;;5001542;28;20085;-52
2022/07/09 08:28:48;;;;;;;1.27;0.63;;;21.70;95.60;;;;;;5006422;28;20081;-52
2022/07/09 08:31:16;;;;;;;3.47;0.82;;;21.70;95.60;;;;;;5005723;28;20493;-54
2022/07/09 08:33:43;;;;;;;2.55;0.70;;;21.70;95.40;;;;;;5004586;28;20050;-55
2022/07/09 08:36:10;;;;;;;2.92;0.73;;;21.70;95.30;;;;;;5005658;28;20100;-54
2022/07/09 08:38:37;;;;;;;4.78;0.80;;;21.70;95.20;;;;;;5005766;28;20077;-56
2022/07/09 08:41:05;;;;;;;1.13;0.70;;;21.60;95.10;;;;;;5003751;28;20050;-54
2022/07/09 08:43:38;;;;;;;0.93;0.40;;;21.60;95.10;;;;;;5004689;28;20631;-56
2022/07/09 08:46:05;;;;;;;2.15;0.90;;;21.70;94.70;;;;;;5007023;28;20048;-54
2022/07/09 08:48:36;;;;;;;1.38;0.60;;;21.70;94.70;;;;;;5004335;28;20046;-52
2022/07/09 08:51:04;;;;;;;0.63;0.63;;;21.70;94.60;;;;;;5004070;28;20073;-48
2022/07/09 08:53:31;;;;;;;0.85;0.73;;;21.70;94.60;;;;;;5004529;28;20065;-51
2022/07/09 08:55:57;;;;;;;2.30;0.40;;;21.80;94.30;;;;;;5004879;28;20054;-53
2022/07/09 08:58:24;;;;;;;1.20;0.70;;;21.70;94.20;;;;;;5005500;28;20632;-55
2022/07/09 09:00:51;;;;;;;1.08;0.70;;;21.70;94.30;;;;;;5005366;28;20050;-50
2022/07/09 09:03:18;;;;;;;0.93;0.68;;;21.70;94.30;;;;;;5005256;28;20065;-53
2022/07/09 09:05:58;;;;;;;3.60;1.27;;;21.70;94.50;;;;;;5005923;28;20056;-53
2022/07/09 09:08:26;;;;;;;4.22;1.33;;;21.60;94.50;;;;;;5004648;28;20124;-54
2022/07/09 09:10:54;;;;;;;2.38;1.17;;;21.70;94.80;;;;;;5005759;28;20068;-57
2022/07/09 09:13:20;;;;;;;1.40;0.82;;;21.70;94.80;;;;;;5005504;28;20062;-55
2022/07/09 09:15:47;;;;;;;1.17;0.80;;;21.80;94.80;;;;;;5005673;28;20119;-53
2022/07/09 09:18:14;;;;;;;1.85;0.80;;;21.80;94.90;;;;;;5005703;28;20096;-54
2022/07/09 09:20:45;;;;;;;1.05;0.80;;;21.90;94.90;;;;;;5005270;28;20501;-53
2022/07/09 09:23:16;;;;;;;1.30;0.60;;;22.00;94.80;;;;;;5005270;28;20100;-53
2022/07/09 09:25:42;;;;;;;3.70;0.70;;;22.00;94.50;;;;;;5005425;28;20089;-53
2022/07/09 09:28:12;;;;;;;2.15;0.73;;;22.00;94.20;;;;;;5005144;28;20681;-51
2022/07/09 09:30:43;;;;;;;1.92;0.70;;;21.90;94.10;;;;;;5005145;28;20062;-51
2022/07/09 09:33:13;;;;;;;5.78;1.02;;;21.90;94.30;;;;;;5004795;28;20409;-54
2022/07/09 09:35:44;;;;;;;7.60;1.10;;;21.90;94.20;;;;;;5009526;28;20136;-55
2022/07/09 09:38:11;;;;;;;2.22;0.75;;;21.90;94.20;;;;;;5000395;28;20065;-53
2022/07/09 09:40:46;;;;;;;2.78;0.95;;;21.80;94.00;;;;;;4991404;28;20050;-54
2022/07/09 09:43:13;;;;;;;1.67;0.88;;;21.80;93.90;;;;;;5001640;28;20227;-54
2022/07/09 09:45:40;;;;;;;3.83;1.23;;;21.80;93.90;;;;;;5002291;28;20049;-53
2022/07/09 09:48:07;;;;;;;1.50;1.10;;;21.90;93.90;;;;;;5003493;28;20038;-53
2022/07/09 09:50:33;;;;;;;1.90;0.90;;;22.00;93.90;;;;;;5004053;28;20046;-55
2022/07/09 09:53:06;;;;;;;2.10;1.07;;;22.10;93.80;;;;;;5002838;28;20505;-54
2022/07/09 09:55:33;;;;;;;1.67;0.75;;;22.10;93.70;;;;;;5001648;28;20092;-55
2022/07/09 09:58:00;;;;;;;1.10;0.70;;;22.10;93.70;;;;;;5006103;28;20490;-54
2022/07/09 10:00:27;;;;;;;11.02;2.63;;;22.10;93.40;;;;;;5006182;28;20050;-53
2022/07/09 10:02:54;;;;;;;3.88;1.45;;;22.10;93.40;;;;;;5005890;28;20073;-53
2022/07/09 10:05:21;;;;;;;4.60;0.80;;;22.10;93.60;;;;;;5006287;28;20058;-54
2022/07/09 10:07:47;;;;;;;1.50;0.80;;;22.30;93.60;;;;;;5008614;28;20054;-55
2022/07/09 10:10:21;;;;;;;1.35;0.88;;;22.50;93.30;;;;;;5007239;28;20149;-54
2022/07/09 10:12:48;;;;;;;2.17;1.02;;;22.40;92.40;;;;;;5009046;28;20046;-54
2022/07/09 10:15:26;;;;;;;3.03;0.90;;;22.20;92.50;;;;;;5008608;28;20155;-50
2022/07/09 10:17:53;;;;;;;7.22;1.08;;;22.10;92.70;;;;;;5008519;28;20088;-52
2022/07/09 10:20:36;;;;;;;1.83;1.30;;;22.40;92.60;;;;;;5008360;28;20065;-55
2022/07/09 10:23:03;;;;;;;1.50;1.00;;;22.90;91.70;;;;;;5008343;28;20050;-53
2022/07/09 10:25:41;;;;;;;1.52;0.88;;;23.30;91.50;;;;;;5008339;28;20050;-50
2022/07/09 10:28:15;;;;;;;1.83;1.23;;;23.60;90.40;;;;;;5008094;28;20050;-54
2022/07/09 10:30:42;;;;;;;2.30;0.85;;;23.70;88.70;;;;;;5008632;28;20163;-54
2022/07/09 10:33:13;;;;;;;8.73;1.27;;;23.60;88.50;;;;;;5006811;28;20126;-51
2022/07/09 10:35:44;;;;;;;1.42;0.85;;;23.30;87.80;;;;;;5007668;28;20081;-54
2022/07/09 10:38:11;;;;;;;2.10;1.25;;;23.20;88.80;;;;;;5007876;28;20073;-52
2022/07/09 10:40:38;;;;;;;1.52;0.93;;;23.50;89.40;;;;;;5007856;28;20042;-52
2022/07/09 10:43:05;;;;;;;3.45;1.20;;;23.90;87.10;;;;;;5007767;28;20049;-54
2022/07/09 10:45:39;;;;;;;2.20;1.05;;;24.10;85.20;;;;;;5007959;28;20113;-55
2022/07/09 10:48:07;;;;;;;4.45;1.70;;;24.20;83.10;;;;;;5008037;28;20396;-54
2022/07/09 10:50:42;;;;;;;6.55;1.15;;;24.40;85.00;;;;;;5004511;28;20042;-55
2022/07/09 10:53:09;;;;;;;1.35;0.90;;;24.70;83.90;;;;;;5013128;28;20607;-52
2022/07/09 10:55:36;;;;;;;4.70;1.67;;;24.70;83.20;;;;;;5007439;28;20513;-55
2022/07/09 10:58:07;;;;;;;6.35;1.33;;;24.40;82.90;;;;;;5006634;28;20564;-55
2022/07/09 11:00:35;;;;;;;1.92;1.00;;;24.40;82.60;;;;;;5007315;28;20079;-53
2022/07/09 11:03:05;;;;;;;4.63;0.95;;;24.10;82.50;;;;;;5007419;28;20522;-54
2022/07/09 11:05:33;;;;;;;1.98;1.27;;;24.20;82.50;;;;;;5006149;28;20089;-55
2022/07/09 11:08:02;;;;;;;1.45;1.33;;;24.10;82.30;;;;;;5007822;28;20119;-54
2022/07/09 11:10:30;;;;;;;4.63;1.00;;;23.70;79.40;;;;;;5006372;28;20046;-53
2022/07/09 11:13:01;;;;;;;1.65;1.15;;;23.70;82.10;;;;;;5007378;28;20054;-53
2022/07/09 11:15:29;;;;;;;1.65;1.05;;;23.50;82.60;;;;;;5012243;28;20081;-52
2022/07/09 11:18:05;;;;;;;2.55;1.13;;;23.70;82.10;;;;;;5009784;28;20050;-51
2022/07/09 11:20:40;;;;;;;4.38;1.05;;;23.90;81.80;;;;;;5007459;28;20065;-50
2022/07/09 11:23:08;;;;;;;2.33;0.90;;;24.00;80.30;;;;;;5005950;28;20046;-54
2022/07/09 11:25:35;;;;;;;1.67;1.15;;;24.10;78.30;;;;;;5007509;28;20089;-52
2022/07/09 11:28:03;;;;;;;1.95;1.23;;;24.20;78.40;;;;;;5007517;28;20084;-50
2022/07/09 11:30:30;;;;;;;2.08;1.10;;;24.40;78.30;;;;;;5007443;28;20053;-55
2022/07/09 11:32:57;;;;;;;6.95;1.73;;;24.40;76.60;;;;;;5007495;28;20651;-52
2022/07/09 11:35:31;;;;;;;2.65;1.20;;;24.40;77.40;;;;;;5005866;28;20085;-51
2022/07/09 11:37:59;;;;;;;1.80;1.05;;;24.30;74.50;;;;;;5007198;28;20484;-53
2022/07/09 11:40:26;;;;;;;3.92;1.02;;;23.90;75.00;;;;;;5007368;28;20200;-53
2022/07/09 11:42:53;;;;;;;1.80;0.88;;;23.70;75.40;;;;;;5007214;28;20073;-53
2022/07/09 11:45:22;;;;;;;1.33;0.90;;;23.90;74.80;;;;;;5007141;28;20112;-54
2022/07/09 11:47:49;;;;;;;1.67;1.00;;;24.00;74.20;;;;;;5021902;28;20081;-52
2022/07/09 11:50:19;;;;;;;1.63;0.90;;;24.20;74.70;;;;;;5007095;28;20144;-53
2022/07/09 11:52:49;;;;;;;2.15;1.08;;;24.30;73.70;;;;;;5006868;28;20081;-53
2022/07/09 11:55:21;;;;;;;2.08;0.80;;;24.50;72.20;;;;;;5007226;28;20050;-52
2022/07/09 11:57:52;;;;;;;1.63;0.95;;;24.50;71.00;;;;;;5003399;28;20133;-52
2022/07/09 12:00:27;;;;;;;1.95;1.10;;;24.40;69.50;;;;;;4997187;28;20086;-55
2022/07/09 12:02:55;;;;;;;4.38;0.90;;;24.30;71.20;;;;;;5006626;28;20141;-54
2022/07/09 12:05:30;;;;;;;2.60;1.00;;;24.40;72.20;;;;;;5006690;28;20080;-51
2022/07/09 12:07:59;;;;;;;;;;;24.50;71.60;;;;;;5007189;28;20108;-49
2022/07/09 12:10:32;;;;;;;1.63;0.95;;;24.60;68.80;;;;;;5006796;28;20460;-54
2022/07/09 12:12:59;;;;;;;6.05;1.38;;;24.50;69.40;;;;;;5006672;28;20108;-54
2022/07/09 12:15:26;;;;;;;0.70;0.70;;;24.50;71.30;;;;;;5006433;28;20078;-54
2022/07/09 12:17:54;;;;;;;1.20;0.90;;;24.70;69.90;;;;;;5006082;28;20080;-52
2022/07/09 12:20:22;;;;;;;2.97;1.00;;;24.70;68.30;;;;;;5006848;28;20128;-52
2022/07/09 12:22:49;;;;;;;1.67;1.02;;;24.60;68.80;;;;;;5006487;28;20088;-53
2022/07/09 12:25:16;;;;;;;2.70;1.20;;;24.70;69.40;;;;;;5006179;28;20053;-55
2022/07/09 12:27:43;;;;;;;0.98;0.90;;;24.80;68.70;;;;;;5006487;28;20042;-55
2022/07/09 12:30:10;;;;;;;1.92;1.27;;;24.90;69.00;;;;;;5006549;28;20046;-54
2022/07/09 12:32:38;;;;;;;4.28;1.10;;;25.00;68.90;;;;;;5002696;28;20057;-53
2022/07/09 12:35:05;;;;;;;1.80;1.38;;;25.20;69.00;;;;;;5006186;28;20077;-54
2022/07/09 12:37:33;;;;;;;1.42;1.10;;;25.20;68.30;;;;;;5006415;28;20053;-54
2022/07/09 12:40:01;;;;;;;1.30;1.00;;;25.20;68.30;;;;;;5005746;28;20232;-53
2022/07/09 12:42:28;;;;;;;2.40;1.05;;;25.30;68.60;;;;;;5006002;28;20084;-54
2022/07/09 12:44:54;;;;;;;1.23;0.85;;;25.30;67.10;;;;;;5006173;28;20132;-54
2022/07/09 12:47:21;;;;;;;4.25;2.38;;;25.40;67.20;;;;;;5006046;28;20054;-53
2022/07/09 12:49:48;;;;;;;1.88;0.90;;;25.50;66.50;;;;;;5006151;28;20085;-53